sensor_id;sensor_type;location;lat;lon;timestamp;P1;durP1;ratioP1;P2;durP2;ratioP2
66830;SDS011;53739;44.224;22.528;2023-04-21T00:00:56;14.95;;;8.93;;
66830;SDS011;53739;44.224;22.528;2023-04-21T00:03:26;19.85;;;10.30;;
66830;SDS011;53739;44.224;22.528;2023-04-21T00:05:55;14.15;;;9.10;;
66830;SDS011;53739;44.224;22.528;2023-04-21T00:08:25;14.75;;;9.27;;
66830;SDS011;53739;44.224;22.528;2023-04-21T00:10:51;15.40;;;10.70;;
66830;SDS011;53739;44.224;22.528;2023-04-21T00:13:17;21.48;;;13.68;;
66830;SDS011;53739;44.224;22.528;2023-04-21T00:15:43;20.90;;;13.55;;
66830;SDS011;53739;44.224;22.528;2023-04-21T00:18:09;21.30;;;14.02;;
66830;SDS011;53739;44.224;22.528;2023-04-21T00:20:37;34.55;;;20.48;;
66830;SDS011;53739;44.224;22.528;2023-04-21T00:23:03;32.60;;;19.73;;
66830;SDS011;53739;44.224;22.528;2023-04-21T00:25:29;21.13;;;11.80;;
66830;SDS011;53739;44.224;22.528;2023-04-21T00:27:55;15.95;;;10.13;;
66830;SDS011;53739;44.224;22.528;2023-04-21T00:30:21;13.30;;;8.43;;
66830;SDS011;53739;44.224;22.528;2023-04-21T00:32:47;11.43;;;7.85;;
66830;SDS011;53739;44.224;22.528;2023-04-21T00:35:15;14.48;;;8.15;;
66830;SDS011;53739;44.224;22.528;2023-04-21T00:37:41;13.32;;;8.18;;
66830;SDS011;53739;44.224;22.528;2023-04-21T00:40:07;11.50;;;7.28;;
66830;SDS011;53739;44.224;22.528;2023-04-21T00:42:33;14.68;;;8.50;;
66830;SDS011;53739;44.224;22.528;2023-04-21T00:44:59;10.45;;;7.38;;
66830;SDS011;53739;44.224;22.528;2023-04-21T00:47:26;12.90;;;8.80;;
66830;SDS011;53739;44.224;22.528;2023-04-21T00:49:52;11.00;;;7.47;;
66830;SDS011;53739;44.224;22.528;2023-04-21T00:52:18;13.70;;;7.72;;
66830;SDS011;53739;44.224;22.528;2023-04-21T00:54:44;12.18;;;7.57;;
66830;SDS011;53739;44.224;22.528;2023-04-21T00:57:10;11.70;;;7.72;;
66830;SDS011;53739;44.224;22.528;2023-04-21T00:59:36;13.63;;;8.73;;
66830;SDS011;53739;44.224;22.528;2023-04-21T01:02:09;11.83;;;7.77;;
66830;SDS011;53739;44.224;22.528;2023-04-21T01:04:37;15.82;;;7.43;;
66830;SDS011;53739;44.224;22.528;2023-04-21T01:07:04;9.30;;;7.05;;
66830;SDS011;53739;44.224;22.528;2023-04-21T01:09:34;16.17;;;7.82;;
66830;SDS011;53739;44.224;22.528;2023-04-21T01:12:01;17.25;;;9.18;;
66830;SDS011;53739;44.224;22.528;2023-04-21T01:14:28;14.27;;;9.75;;
66830;SDS011;53739;44.224;22.528;2023-04-21T01:16:54;12.35;;;8.35;;
66830;SDS011;53739;44.224;22.528;2023-04-21T01:19:24;13.05;;;7.72;;
66830;SDS011;53739;44.224;22.528;2023-04-21T01:22:03;14.07;;;8.55;;
66830;SDS011;53739;44.224;22.528;2023-04-21T01:24:35;13.25;;;9.02;;
66830;SDS011;53739;44.224;22.528;2023-04-21T01:27:10;14.55;;;9.10;;
66830;SDS011;53739;44.224;22.528;2023-04-21T01:29:41;14.05;;;8.00;;
66830;SDS011;53739;44.224;22.528;2023-04-21T01:35:02;15.40;;;7.85;;
66830;SDS011;53739;44.224;22.528;2023-04-21T01:37:31;11.90;;;8.07;;
66830;SDS011;53739;44.224;22.528;2023-04-21T01:43:07;12.48;;;8.13;;
66830;SDS011;53739;44.224;22.528;2023-04-21T01:45:33;14.80;;;7.78;;
66830;SDS011;53739;44.224;22.528;2023-04-21T01:47:59;15.05;;;8.80;;
66830;SDS011;53739;44.224;22.528;2023-04-21T01:50:25;19.80;;;9.50;;
66830;SDS011;53739;44.224;22.528;2023-04-21T01:52:51;11.55;;;7.30;;
66830;SDS011;53739;44.224;22.528;2023-04-21T01:55:17;13.40;;;8.65;;
66830;SDS011;53739;44.224;22.528;2023-04-21T01:57:43;11.55;;;8.18;;
66830;SDS011;53739;44.224;22.528;2023-04-21T02:00:09;11.52;;;8.15;;
66830;SDS011;53739;44.224;22.528;2023-04-21T02:02:35;9.80;;;7.80;;
66830;SDS011;53739;44.224;22.528;2023-04-21T02:05:01;11.55;;;8.57;;
66830;SDS011;53739;44.224;22.528;2023-04-21T02:07:27;15.40;;;8.70;;
66830;SDS011;53739;44.224;22.528;2023-04-21T02:09:53;11.43;;;8.35;;
66830;SDS011;53739;44.224;22.528;2023-04-21T02:12:19;14.20;;;8.52;;
66830;SDS011;53739;44.224;22.528;2023-04-21T02:14:48;10.38;;;8.70;;
66830;SDS011;53739;44.224;22.528;2023-04-21T02:17:17;15.93;;;11.95;;
66830;SDS011;53739;44.224;22.528;2023-04-21T02:19:43;23.95;;;15.35;;
66830;SDS011;53739;44.224;22.528;2023-04-21T02:22:09;19.70;;;12.82;;
66830;SDS011;53739;44.224;22.528;2023-04-21T02:24:37;24.25;;;16.20;;
66830;SDS011;53739;44.224;22.528;2023-04-21T02:27:03;20.98;;;15.88;;
66830;SDS011;53739;44.224;22.528;2023-04-21T02:29:29;22.70;;;15.10;;
66830;SDS011;53739;44.224;22.528;2023-04-21T02:31:55;23.35;;;15.13;;
66830;SDS011;53739;44.224;22.528;2023-04-21T02:34:21;21.35;;;15.85;;
66830;SDS011;53739;44.224;22.528;2023-04-21T02:36:47;22.40;;;15.60;;
66830;SDS011;53739;44.224;22.528;2023-04-21T02:39:13;22.83;;;16.17;;
66830;SDS011;53739;44.224;22.528;2023-04-21T02:41:39;26.45;;;16.73;;
66830;SDS011;53739;44.224;22.528;2023-04-21T02:44:05;28.35;;;17.00;;
66830;SDS011;53739;44.224;22.528;2023-04-21T02:46:32;27.30;;;17.38;;
66830;SDS011;53739;44.224;22.528;2023-04-21T02:48:58;30.38;;;19.67;;
66830;SDS011;53739;44.224;22.528;2023-04-21T02:51:24;32.75;;;21.55;;
66830;SDS011;53739;44.224;22.528;2023-04-21T02:53:53;32.85;;;21.83;;
66830;SDS011;53739;44.224;22.528;2023-04-21T02:56:20;32.00;;;22.15;;
66830;SDS011;53739;44.224;22.528;2023-04-21T02:58:49;35.90;;;23.15;;
66830;SDS011;53739;44.224;22.528;2023-04-21T03:01:20;36.42;;;21.67;;
66830;SDS011;53739;44.224;22.528;2023-04-21T03:03:59;31.40;;;21.52;;
66830;SDS011;53739;44.224;22.528;2023-04-21T03:06:25;29.00;;;19.73;;
66830;SDS011;53739;44.224;22.528;2023-04-21T03:08:52;30.20;;;19.50;;
66830;SDS011;53739;44.224;22.528;2023-04-21T03:11:18;36.90;;;20.50;;
66830;SDS011;53739;44.224;22.528;2023-04-21T03:13:47;32.35;;;20.80;;
66830;SDS011;53739;44.224;22.528;2023-04-21T03:16:13;30.75;;;19.23;;
66830;SDS011;53739;44.224;22.528;2023-04-21T03:18:40;30.88;;;18.58;;
66830;SDS011;53739;44.224;22.528;2023-04-21T03:21:06;27.88;;;19.70;;
66830;SDS011;53739;44.224;22.528;2023-04-21T03:23:32;29.58;;;19.42;;
66830;SDS011;53739;44.224;22.528;2023-04-21T03:26:13;28.45;;;19.42;;
66830;SDS011;53739;44.224;22.528;2023-04-21T03:28:49;28.85;;;18.45;;
66830;SDS011;53739;44.224;22.528;2023-04-21T03:31:18;24.50;;;17.70;;
66830;SDS011;53739;44.224;22.528;2023-04-21T03:33:45;32.00;;;18.85;;
66830;SDS011;53739;44.224;22.528;2023-04-21T03:36:11;32.35;;;19.35;;
66830;SDS011;53739;44.224;22.528;2023-04-21T03:38:37;36.72;;;19.90;;
66830;SDS011;53739;44.224;22.528;2023-04-21T03:41:03;32.90;;;20.80;;
66830;SDS011;53739;44.224;22.528;2023-04-21T03:43:29;31.85;;;21.25;;
66830;SDS011;53739;44.224;22.528;2023-04-21T03:46:00;30.85;;;20.88;;
66830;SDS011;53739;44.224;22.528;2023-04-21T03:48:26;25.67;;;18.02;;
66830;SDS011;53739;44.224;22.528;2023-04-21T03:50:53;28.55;;;17.15;;
66830;SDS011;53739;44.224;22.528;2023-04-21T03:53:22;21.88;;;14.18;;
66830;SDS011;53739;44.224;22.528;2023-04-21T03:55:49;22.08;;;14.25;;
66830;SDS011;53739;44.224;22.528;2023-04-21T03:58:15;21.55;;;15.40;;
66830;SDS011;53739;44.224;22.528;2023-04-21T04:00:41;22.80;;;13.10;;
66830;SDS011;53739;44.224;22.528;2023-04-21T04:03:08;19.48;;;13.90;;
66830;SDS011;53739;44.224;22.528;2023-04-21T04:05:37;19.35;;;13.35;;
66830;SDS011;53739;44.224;22.528;2023-04-21T04:08:03;19.77;;;13.57;;
66830;SDS011;53739;44.224;22.528;2023-04-21T04:10:30;22.15;;;13.68;;
66830;SDS011;53739;44.224;22.528;2023-04-21T04:12:59;17.55;;;12.63;;
66830;SDS011;53739;44.224;22.528;2023-04-21T04:15:31;19.77;;;13.52;;
66830;SDS011;53739;44.224;22.528;2023-04-21T04:17:58;18.17;;;13.13;;
66830;SDS011;53739;44.224;22.528;2023-04-21T04:20:35;25.00;;;17.92;;
66830;SDS011;53739;44.224;22.528;2023-04-21T04:23:18;28.73;;;17.75;;
66830;SDS011;53739;44.224;22.528;2023-04-21T04:25:57;26.35;;;17.20;;
66830;SDS011;53739;44.224;22.528;2023-04-21T04:38:28;25.55;;;16.85;;
66830;SDS011;53739;44.224;22.528;2023-04-21T04:45:10;20.67;;;14.82;;
66830;SDS011;53739;44.224;22.528;2023-04-21T04:48:02;20.95;;;15.73;;
66830;SDS011;53739;44.224;22.528;2023-04-21T04:50:36;23.45;;;15.07;;
66830;SDS011;53739;44.224;22.528;2023-04-21T04:53:06;23.67;;;14.85;;
66830;SDS011;53739;44.224;22.528;2023-04-21T04:55:35;21.10;;;14.93;;
66830;SDS011;53739;44.224;22.528;2023-04-21T04:58:02;21.23;;;14.10;;
66830;SDS011;53739;44.224;22.528;2023-04-21T05:00:28;22.50;;;15.05;;
66830;SDS011;53739;44.224;22.528;2023-04-21T05:02:55;26.83;;;14.88;;
66830;SDS011;53739;44.224;22.528;2023-04-21T05:05:22;16.77;;;10.85;;
66830;SDS011;53739;44.224;22.528;2023-04-21T05:07:49;11.90;;;9.98;;
66830;SDS011;53739;44.224;22.528;2023-04-21T05:10:17;14.32;;;11.18;;
66830;SDS011;53739;44.224;22.528;2023-04-21T05:12:43;14.65;;;10.82;;
66830;SDS011;53739;44.224;22.528;2023-04-21T05:15:13;15.13;;;10.05;;
66830;SDS011;53739;44.224;22.528;2023-04-21T05:17:39;14.32;;;8.95;;
66830;SDS011;53739;44.224;22.528;2023-04-21T05:20:06;15.75;;;10.68;;
66830;SDS011;53739;44.224;22.528;2023-04-21T05:22:35;14.75;;;10.05;;
66830;SDS011;53739;44.224;22.528;2023-04-21T05:25:09;16.02;;;10.35;;
66830;SDS011;53739;44.224;22.528;2023-04-21T05:27:53;18.73;;;11.43;;
66830;SDS011;53739;44.224;22.528;2023-04-21T05:30:19;17.75;;;10.77;;
66830;SDS011;53739;44.224;22.528;2023-04-21T05:32:45;19.00;;;10.77;;
66830;SDS011;53739;44.224;22.528;2023-04-21T05:35:11;15.68;;;11.00;;
66830;SDS011;53739;44.224;22.528;2023-04-21T05:40:35;20.17;;;11.70;;
66830;SDS011;53739;44.224;22.528;2023-04-21T05:43:01;17.83;;;8.88;;
66830;SDS011;53739;44.224;22.528;2023-04-21T05:45:27;20.23;;;10.35;;
66830;SDS011;53739;44.224;22.528;2023-04-21T05:47:53;15.07;;;9.63;;
66830;SDS011;53739;44.224;22.528;2023-04-21T05:50:19;17.08;;;10.50;;
66830;SDS011;53739;44.224;22.528;2023-04-21T05:52:44;15.02;;;10.48;;
66830;SDS011;53739;44.224;22.528;2023-04-21T05:55:10;15.18;;;9.27;;
66830;SDS011;53739;44.224;22.528;2023-04-21T05:57:36;15.60;;;9.90;;
66830;SDS011;53739;44.224;22.528;2023-04-21T06:00:02;13.45;;;9.25;;
66830;SDS011;53739;44.224;22.528;2023-04-21T06:02:28;15.02;;;9.30;;
66830;SDS011;53739;44.224;22.528;2023-04-21T06:04:54;15.20;;;10.00;;
66830;SDS011;53739;44.224;22.528;2023-04-21T06:07:20;11.57;;;8.38;;
66830;SDS011;53739;44.224;22.528;2023-04-21T06:09:49;12.13;;;7.68;;
66830;SDS011;53739;44.224;22.528;2023-04-21T06:12:18;15.20;;;8.40;;
66830;SDS011;53739;44.224;22.528;2023-04-21T06:14:44;13.73;;;9.00;;
66830;SDS011;53739;44.224;22.528;2023-04-21T06:17:16;15.38;;;9.10;;
66830;SDS011;53739;44.224;22.528;2023-04-21T06:19:43;15.35;;;8.43;;
66830;SDS011;53739;44.224;22.528;2023-04-21T06:22:09;22.50;;;9.25;;
66830;SDS011;53739;44.224;22.528;2023-04-21T06:24:35;11.30;;;8.07;;
66830;SDS011;53739;44.224;22.528;2023-04-21T06:27:01;16.85;;;9.48;;
66830;SDS011;53739;44.224;22.528;2023-04-21T06:29:27;11.80;;;7.95;;
66830;SDS011;53739;44.224;22.528;2023-04-21T06:31:53;14.27;;;9.40;;
66830;SDS011;53739;44.224;22.528;2023-04-21T06:34:19;16.45;;;8.18;;
66830;SDS011;53739;44.224;22.528;2023-04-21T06:36:45;11.30;;;8.85;;
66830;SDS011;53739;44.224;22.528;2023-04-21T06:39:15;16.65;;;9.10;;
66830;SDS011;53739;44.224;22.528;2023-04-21T06:41:41;17.60;;;10.32;;
66830;SDS011;53739;44.224;22.528;2023-04-21T06:44:28;12.60;;;8.35;;
66830;SDS011;53739;44.224;22.528;2023-04-21T06:46:53;13.13;;;8.27;;
66830;SDS011;53739;44.224;22.528;2023-04-21T06:49:19;14.82;;;8.45;;
66830;SDS011;53739;44.224;22.528;2023-04-21T06:51:45;15.05;;;8.20;;
66830;SDS011;53739;44.224;22.528;2023-04-21T06:54:12;13.93;;;8.27;;
66830;SDS011;53739;44.224;22.528;2023-04-21T06:56:38;10.75;;;7.95;;
66830;SDS011;53739;44.224;22.528;2023-04-21T06:59:08;17.02;;;8.93;;
66830;SDS011;53739;44.224;22.528;2023-04-21T07:01:43;15.65;;;7.93;;
66830;SDS011;53739;44.224;22.528;2023-04-21T07:11:08;14.10;;;7.55;;
66830;SDS011;53739;44.224;22.528;2023-04-21T07:13:34;15.82;;;8.10;;
66830;SDS011;53739;44.224;22.528;2023-04-21T07:16:02;20.98;;;8.60;;
66830;SDS011;53739;44.224;22.528;2023-04-21T07:18:29;17.67;;;8.55;;
66830;SDS011;53739;44.224;22.528;2023-04-21T07:20:56;11.68;;;6.97;;
66830;SDS011;53739;44.224;22.528;2023-04-21T07:23:29;13.82;;;7.65;;
66830;SDS011;53739;44.224;22.528;2023-04-21T07:26:39;15.50;;;7.28;;
66830;SDS011;53739;44.224;22.528;2023-04-21T07:29:17;14.75;;;8.02;;
66830;SDS011;53739;44.224;22.528;2023-04-21T07:31:46;13.90;;;7.50;;
66830;SDS011;53739;44.224;22.528;2023-04-21T07:34:12;11.57;;;7.97;;
66830;SDS011;53739;44.224;22.528;2023-04-21T07:40:33;14.52;;;7.72;;
66830;SDS011;53739;44.224;22.528;2023-04-21T08:00:05;14.50;;;7.50;;
66830;SDS011;53739;44.224;22.528;2023-04-21T08:02:32;17.20;;;7.53;;
66830;SDS011;53739;44.224;22.528;2023-04-21T08:04:58;15.43;;;7.20;;
66830;SDS011;53739;44.224;22.528;2023-04-21T08:07:24;16.60;;;8.15;;
66830;SDS011;53739;44.224;22.528;2023-04-21T08:12:54;10.80;;;7.10;;
66830;SDS011;53739;44.224;22.528;2023-04-21T08:22:22;11.55;;;6.60;;
66830;SDS011;53739;44.224;22.528;2023-04-21T10:29:12;14.25;;;8.50;;
66830;SDS011;53739;44.224;22.528;2023-04-21T10:45:49;8.15;;;5.95;;
66830;SDS011;53739;44.224;22.528;2023-04-21T11:05:49;12.15;;;5.90;;
66830;SDS011;53739;44.224;22.528;2023-04-21T11:16:02;8.35;;;5.85;;
66830;SDS011;53739;44.224;22.528;2023-04-21T11:18:32;8.50;;;5.63;;
66830;SDS011;53739;44.224;22.528;2023-04-21T11:21:06;9.73;;;6.18;;
66830;SDS011;53739;44.224;22.528;2023-04-21T11:24:01;12.82;;;5.95;;
66830;SDS011;53739;44.224;22.528;2023-04-21T11:37:25;9.75;;;5.88;;
66830;SDS011;53739;44.224;22.528;2023-04-21T11:46:59;11.80;;;6.60;;
66830;SDS011;53739;44.224;22.528;2023-04-21T12:44:20;11.07;;;6.78;;
66830;SDS011;53739;44.224;22.528;2023-04-21T12:47:11;14.82;;;8.55;;
66830;SDS011;53739;44.224;22.528;2023-04-21T12:49:40;14.38;;;7.43;;
66830;SDS011;53739;44.224;22.528;2023-04-21T12:56:27;13.77;;;6.43;;
66830;SDS011;53739;44.224;22.528;2023-04-21T14:04:26;10.83;;;6.30;;
66830;SDS011;53739;44.224;22.528;2023-04-21T14:29:53;21.20;;;12.90;;
66830;SDS011;53739;44.224;22.528;2023-04-21T14:32:27;14.27;;;7.53;;
66830;SDS011;53739;44.224;22.528;2023-04-21T15:05:04;12.70;;;6.57;;
66830;SDS011;53739;44.224;22.528;2023-04-21T15:07:40;11.75;;;5.63;;
66830;SDS011;53739;44.224;22.528;2023-04-21T15:10:25;10.13;;;5.10;;
66830;SDS011;53739;44.224;22.528;2023-04-21T15:13:00;12.73;;;5.88;;
66830;SDS011;53739;44.224;22.528;2023-04-21T15:15:29;13.82;;;7.70;;
66830;SDS011;53739;44.224;22.528;2023-04-21T15:17:54;11.02;;;6.72;;
66830;SDS011;53739;44.224;22.528;2023-04-21T15:20:20;8.38;;;5.65;;
66830;SDS011;53739;44.224;22.528;2023-04-21T15:22:46;10.98;;;6.20;;
66830;SDS011;53739;44.224;22.528;2023-04-21T15:25:12;11.07;;;6.53;;
66830;SDS011;53739;44.224;22.528;2023-04-21T15:27:39;7.80;;;5.72;;
66830;SDS011;53739;44.224;22.528;2023-04-21T15:30:05;8.98;;;5.20;;
66830;SDS011;53739;44.224;22.528;2023-04-21T15:32:31;12.73;;;6.35;;
66830;SDS011;53739;44.224;22.528;2023-04-21T15:41:51;13.23;;;8.20;;
66830;SDS011;53739;44.224;22.528;2023-04-21T15:44:17;13.55;;;7.50;;
66830;SDS011;53739;44.224;22.528;2023-04-21T15:47:16;11.48;;;8.30;;
66830;SDS011;53739;44.224;22.528;2023-04-21T15:49:40;16.27;;;9.95;;
66830;SDS011;53739;44.224;22.528;2023-04-21T15:52:06;14.80;;;10.07;;
66830;SDS011;53739;44.224;22.528;2023-04-21T15:54:32;16.98;;;9.07;;
66830;SDS011;53739;44.224;22.528;2023-04-21T15:56:59;18.23;;;9.50;;
66830;SDS011;53739;44.224;22.528;2023-04-21T15:59:26;15.40;;;9.30;;
66830;SDS011;53739;44.224;22.528;2023-04-21T16:01:52;16.92;;;12.13;;
66830;SDS011;53739;44.224;22.528;2023-04-21T16:04:20;15.82;;;9.27;;
66830;SDS011;53739;44.224;22.528;2023-04-21T16:06:47;14.40;;;6.75;;
66830;SDS011;53739;44.224;22.528;2023-04-21T16:09:12;13.10;;;8.55;;
66830;SDS011;53739;44.224;22.528;2023-04-21T16:11:38;15.43;;;8.80;;
66830;SDS011;53739;44.224;22.528;2023-04-21T16:14:08;25.70;;;10.55;;
66830;SDS011;53739;44.224;22.528;2023-04-21T16:16:35;16.63;;;8.93;;
66830;SDS011;53739;44.224;22.528;2023-04-21T16:19:01;11.95;;;8.23;;
66830;SDS011;53739;44.224;22.528;2023-04-21T16:21:27;11.93;;;8.02;;
66830;SDS011;53739;44.224;22.528;2023-04-21T16:23:52;13.20;;;7.95;;
66830;SDS011;53739;44.224;22.528;2023-04-21T16:26:18;13.80;;;9.30;;
66830;SDS011;53739;44.224;22.528;2023-04-21T16:28:53;14.85;;;9.50;;
66830;SDS011;53739;44.224;22.528;2023-04-21T16:31:20;15.70;;;9.02;;
66830;SDS011;53739;44.224;22.528;2023-04-21T16:33:49;16.77;;;10.15;;
66830;SDS011;53739;44.224;22.528;2023-04-21T16:36:25;19.10;;;8.90;;
66830;SDS011;53739;44.224;22.528;2023-04-21T16:38:55;16.73;;;9.02;;
66830;SDS011;53739;44.224;22.528;2023-04-21T16:41:21;14.18;;;9.90;;
66830;SDS011;53739;44.224;22.528;2023-04-21T16:43:48;17.75;;;12.05;;
66830;SDS011;53739;44.224;22.528;2023-04-21T16:46:14;24.48;;;13.80;;
66830;SDS011;53739;44.224;22.528;2023-04-21T16:48:41;15.63;;;10.05;;
66830;SDS011;53739;44.224;22.528;2023-04-21T16:51:07;18.90;;;10.00;;
66830;SDS011;53739;44.224;22.528;2023-04-21T16:53:33;18.88;;;10.40;;
66830;SDS011;53739;44.224;22.528;2023-04-21T16:55:59;20.80;;;12.02;;
66830;SDS011;53739;44.224;22.528;2023-04-21T16:58:25;18.52;;;11.23;;
66830;SDS011;53739;44.224;22.528;2023-04-21T17:00:52;14.07;;;9.68;;
66830;SDS011;53739;44.224;22.528;2023-04-21T17:03:27;23.20;;;11.77;;
66830;SDS011;53739;44.224;22.528;2023-04-21T17:06:09;19.65;;;12.15;;
66830;SDS011;53739;44.224;22.528;2023-04-21T17:08:36;18.80;;;13.57;;
66830;SDS011;53739;44.224;22.528;2023-04-21T17:11:02;18.00;;;13.20;;
66830;SDS011;53739;44.224;22.528;2023-04-21T17:13:35;27.80;;;15.93;;
66830;SDS011;53739;44.224;22.528;2023-04-21T17:16:04;30.20;;;16.70;;
66830;SDS011;53739;44.224;22.528;2023-04-21T17:18:31;27.80;;;16.27;;
66830;SDS011;53739;44.224;22.528;2023-04-21T17:21:40;27.88;;;15.45;;
66830;SDS011;53739;44.224;22.528;2023-04-21T17:24:09;23.25;;;12.80;;
66830;SDS011;53739;44.224;22.528;2023-04-21T17:49:58;104.10;;;64.20;;
66830;SDS011;53739;44.224;22.528;2023-04-21T18:12:46;79.43;;;53.13;;
66830;SDS011;53739;44.224;22.528;2023-04-21T18:22:05;65.45;;;50.70;;
66830;SDS011;53739;44.224;22.528;2023-04-21T18:24:46;75.88;;;57.60;;
66830;SDS011;53739;44.224;22.528;2023-04-21T18:27:12;66.82;;;47.88;;
66830;SDS011;53739;44.224;22.528;2023-04-21T22:25:48;85.90;;;47.17;;
66830;SDS011;53739;44.224;22.528;2023-04-21T23:48:28;28.55;;;15.65;;
